Time;durP1;ratioP1;P1;durP2;ratioP2;P2;SDS_P1;SDS_P2;PMS_P1;PMS_P2;Temp;Humidity;BMP_temperature;BMP_pressure;BME280_temperature;BME280_humidity;BME280_pressure;Samples;Min_cycle;Max_cycle;Signal;HPM_P1;HPM_P2
2023/09/20 00:02:13;;;;;;;3.67;1.52;;;14.50;99.90;;;;;;6296725;28;20056;-75
2023/09/20 00:05:18;;;;;;;3.88;1.55;;;14.50;99.90;;;;;;6296407;28;20055;-76
2023/09/20 00:08:19;;;;;;;3.28;1.65;;;14.40;99.90;;;;;;6296664;28;20048;-76
2023/09/20 00:11:21;;;;;;;2.78;1.40;;;14.40;99.90;;;;;;6295826;28;20567;-76
2023/09/20 00:14:23;;;;;;;1.33;1.10;;;14.40;99.90;;;;;;6296657;28;20060;-76
2023/09/20 00:17:24;;;;;;;1.95;1.40;;;14.30;99.90;;;;;;6296217;28;20040;-76
2023/09/20 00:20:27;;;;;;;1.75;1.65;;;14.30;99.90;;;;;;6296416;28;20052;-76
2023/09/20 00:23:29;;;;;;;2.08;1.65;;;14.30;99.90;;;;;;6295876;28;20044;-76
2023/09/20 00:26:31;;;;;;;3.17;1.75;;;14.20;99.90;;;;;;6296322;28;20473;-76
2023/09/20 00:29:33;;;;;;;5.35;2.30;;;14.30;99.90;;;;;;6294973;28;20052;-76
2023/09/20 00:32:36;;;;;;;1.90;1.38;;;14.20;99.90;;;;;;6293975;28;20417;-76
2023/09/20 00:35:40;;;;;;;2.83;1.65;;;14.20;99.90;;;;;;6295079;28;20170;-76
2023/09/20 00:38:41;;;;;;;2.95;1.80;;;14.20;99.90;;;;;;6294896;28;20040;-76
2023/09/20 00:41:45;;;;;;;5.20;1.50;;;14.20;99.90;;;;;;6293356;28;20041;-76
2023/09/20 00:44:46;;;;;;;3.20;1.45;;;14.10;99.90;;;;;;6294367;28;20040;-76
2023/09/20 00:47:51;;;;;;;1.90;1.58;;;14.10;99.90;;;;;;6295197;28;20040;-76
2023/09/20 00:50:54;;;;;;;2.70;1.38;;;14.20;99.90;;;;;;6299149;28;20051;-76
2023/09/20 00:53:58;;;;;;;1.63;1.52;;;14.10;99.90;;;;;;6295170;28;20048;-76
2023/09/20 00:57:00;;;;;;;1.63;1.52;;;14.10;99.90;;;;;;6295102;28;20044;-76
2023/09/20 01:00:07;;;;;;;5.28;1.52;;;14.10;99.90;;;;;;6295128;28;20493;-77
2023/09/20 01:03:10;;;;;;;2.00;1.80;;;14.20;99.90;;;;;;6287525;28;20053;-76
2023/09/20 01:06:15;;;;;;;2.03;1.85;;;14.10;99.90;;;;;;6294702;28;20115;-76
2023/09/20 01:09:16;;;;;;;1.70;1.38;;;14.10;99.90;;;;;;6295171;28;20101;-76
2023/09/20 01:12:18;;;;;;;3.15;1.42;;;14.20;99.90;;;;;;6294581;28;20049;-76
2023/09/20 01:15:21;;;;;;;2.72;2.22;;;14.10;99.90;;;;;;6294928;28;20048;-76
2023/09/20 01:18:22;;;;;;;2.30;1.80;;;14.10;99.90;;;;;;6294752;28;20040;-76
2023/09/20 01:21:25;;;;;;;3.33;1.77;;;14.10;99.90;;;;;;6294502;28;20413;-75
2023/09/20 01:24:33;;;;;;;2.40;1.55;;;14.10;99.90;;;;;;6294140;28;20044;-76
2023/09/20 01:27:35;;;;;;;2.50;1.30;;;14.10;99.90;;;;;;6294234;28;20421;-76
2023/09/20 01:30:38;;;;;;;4.78;1.45;;;14.10;99.90;;;;;;6295182;28;20425;-76
2023/09/20 01:33:41;;;;;;;4.53;1.52;;;14.10;99.90;;;;;;6294220;28;20143;-76
2023/09/20 01:36:43;;;;;;;4.20;1.50;;;14.10;99.90;;;;;;6294600;28;20071;-76
2023/09/20 01:39:46;;;;;;;2.00;1.60;;;14.10;99.90;;;;;;6293916;28;20036;-76
2023/09/20 01:42:48;;;;;;;1.30;1.20;;;14.10;99.90;;;;;;6294596;28;20066;-76
2023/09/20 01:45:50;;;;;;;2.95;1.80;;;14.00;99.90;;;;;;6294345;28;20041;-76
2023/09/20 01:48:52;;;;;;;1.75;1.10;;;14.00;99.90;;;;;;6294535;28;20036;-76
2023/09/20 01:51:54;;;;;;;4.40;1.77;;;14.00;99.90;;;;;;6294260;28;20409;-76
2023/09/20 01:54:57;;;;;;;6.50;1.75;;;14.00;99.90;;;;;;6294389;28;20497;-76
2023/09/20 01:58:03;;;;;;;2.78;1.70;;;14.10;99.90;;;;;;6294125;28;20414;-76
2023/09/20 02:01:05;;;;;;;4.93;2.92;;;14.10;99.90;;;;;;6293556;28;20514;-76
2023/09/20 02:04:08;;;;;;;2.08;1.80;;;14.20;99.90;;;;;;6293986;28;20051;-76
2023/09/20 02:07:11;;;;;;;3.28;1.02;;;14.20;99.90;;;;;;6294561;28;20124;-76
2023/09/20 02:10:16;;;;;;;4.05;1.50;;;14.30;99.90;;;;;;6286139;28;20041;-76
2023/09/20 02:13:18;;;;;;;3.05;1.90;;;14.40;99.90;;;;;;6293742;28;20055;-76
2023/09/20 02:16:20;;;;;;;2.92;1.63;;;14.40;99.90;;;;;;6294293;28;20048;-76
2023/09/20 02:19:22;;;;;;;1.83;1.38;;;14.40;99.90;;;;;;6293341;28;20049;-76
2023/09/20 02:22:24;;;;;;;3.45;1.55;;;14.40;99.90;;;;;;6294315;28;20040;-76
2023/09/20 02:25:28;;;;;;;2.85;2.28;;;14.40;99.90;;;;;;6293645;28;20048;-76
2023/09/20 02:28:29;;;;;;;2.17;1.35;;;14.40;99.90;;;;;;6293941;28;20394;-76
2023/09/20 02:31:31;;;;;;;1.73;1.45;;;14.40;99.90;;;;;;6293640;28;20049;-76
2023/09/20 02:34:33;;;;;;;1.70;1.38;;;14.50;99.90;;;;;;6295330;28;20055;-76
2023/09/20 02:37:35;;;;;;;3.40;1.52;;;14.50;99.90;;;;;;6296956;28;20049;-76
2023/09/20 02:40:38;;;;;;;1.58;1.17;;;14.40;99.90;;;;;;6297105;28;20038;-76
2023/09/20 02:43:40;;;;;;;3.63;1.15;;;14.20;99.90;;;;;;6297985;28;20040;-76
2023/09/20 02:46:42;;;;;;;1.40;1.05;;;14.10;99.90;;;;;;6298448;28;20048;-76
2023/09/20 02:49:44;;;;;;;1.80;1.65;;;14.10;99.90;;;;;;6298141;28;20043;-76
2023/09/20 02:52:47;;;;;;;1.40;1.27;;;14.00;99.90;;;;;;6297730;28;20400;-76
2023/09/20 02:55:50;;;;;;;2.58;1.55;;;14.00;99.90;;;;;;6297661;28;20093;-76
2023/09/20 02:58:52;;;;;;;4.28;1.38;;;13.90;99.90;;;;;;6298159;28;20090;-76
2023/09/20 03:01:54;;;;;;;3.63;1.65;;;13.90;99.90;;;;;;6297888;28;20056;-76
2023/09/20 03:04:56;;;;;;;2.05;1.75;;;13.80;99.90;;;;;;6297402;28;20079;-76
2023/09/20 03:07:58;;;;;;;1.67;1.50;;;13.70;99.90;;;;;;6298180;28;20036;-76
2023/09/20 03:11:01;;;;;;;1.88;1.52;;;13.70;99.90;;;;;;6297737;28;20048;-75
2023/09/20 03:14:08;;;;;;;1.98;1.30;;;13.70;99.90;;;;;;6297424;28;20041;-76
2023/09/20 03:17:10;;;;;;;2.00;1.80;;;13.70;99.90;;;;;;6296869;28;20071;-76
2023/09/20 03:20:16;;;;;;;1.55;1.15;;;13.60;99.90;;;;;;6297274;28;20051;-76
2023/09/20 03:23:18;;;;;;;2.63;1.40;;;13.60;99.90;;;;;;6289023;28;20044;-76
2023/09/20 03:26:21;;;;;;;5.95;1.77;;;13.60;99.90;;;;;;6297671;28;20474;-76
2023/09/20 03:29:23;;;;;;;1.90;1.15;;;13.60;99.90;;;;;;6297157;28;20052;-76
2023/09/20 03:32:25;;;;;;;3.83;1.30;;;13.60;99.90;;;;;;6296893;28;20393;-75
2023/09/20 03:35:27;;;;;;;1.80;1.40;;;13.60;99.90;;;;;;6296836;28;20056;-76
2023/09/20 03:38:30;;;;;;;3.88;1.77;;;13.50;99.90;;;;;;6297698;28;20390;-76
2023/09/20 03:41:33;;;;;;;2.30;1.42;;;13.40;99.90;;;;;;6297196;28;20040;-76
2023/09/20 03:44:35;;;;;;;3.78;2.13;;;13.30;99.90;;;;;;6296933;28;20535;-76
2023/09/20 03:47:36;;;;;;;1.52;1.25;;;13.30;99.90;;;;;;6297056;28;20515;-76
2023/09/20 03:50:43;;;;;;;4.18;2.53;;;13.30;99.90;;;;;;6296539;28;20055;-76
2023/09/20 03:53:45;;;;;;;5.38;2.95;;;13.30;99.90;;;;;;6296755;28;20056;-76
2023/09/20 03:56:48;;;;;;;2.92;2.15;;;13.20;99.90;;;;;;6296626;28;20051;-76
2023/09/20 03:59:50;;;;;;;1.73;1.60;;;13.30;99.90;;;;;;6297066;28;20043;-75
2023/09/20 04:02:53;;;;;;;2.13;1.88;;;13.30;99.90;;;;;;6296744;28;20047;-77
2023/09/20 04:05:57;;;;;;;1.77;1.65;;;13.30;99.90;;;;;;6296610;28;20041;-76
2023/09/20 04:09:00;;;;;;;1.60;1.50;;;13.40;99.90;;;;;;6296097;28;20143;-76
2023/09/20 04:12:05;;;;;;;2.40;1.73;;;13.40;99.90;;;;;;6296184;28;20055;-76
2023/09/20 04:15:08;;;;;;;1.60;1.50;;;13.30;99.90;;;;;;6296245;28;20055;-76
2023/09/20 04:18:09;;;;;;;2.70;1.40;;;13.30;99.90;;;;;;6296132;28;20040;-77
2023/09/20 04:21:11;;;;;;;2.13;1.52;;;13.30;99.90;;;;;;6296372;28;20037;-77
2023/09/20 04:24:13;;;;;;;3.30;1.30;;;13.30;99.90;;;;;;6295811;28;20045;-76
2023/09/20 04:27:16;;;;;;;1.63;1.40;;;13.30;99.90;;;;;;6296079;28;20114;-76
2023/09/20 04:30:18;;;;;;;2.38;1.27;;;13.20;99.90;;;;;;6296100;28;20098;-76
2023/09/20 04:33:20;;;;;;;3.95;1.40;;;13.30;99.90;;;;;;6287619;28;20068;-76
2023/09/20 04:36:21;;;;;;;6.10;1.30;;;13.20;99.90;;;;;;6287700;28;20051;-77
2023/09/20 04:39:25;;;;;;;2.97;2.05;;;13.10;99.90;;;;;;6295806;28;20416;-76
2023/09/20 04:42:32;;;;;;;2.20;2.00;;;13.10;99.90;;;;;;6296018;28;20056;-76
2023/09/20 04:45:34;;;;;;;1.60;1.50;;;13.10;99.90;;;;;;6296678;28;20048;-76
2023/09/20 04:48:38;;;;;;;5.65;2.17;;;13.10;99.90;;;;;;6295773;28;20048;-76
2023/09/20 04:51:40;;;;;;;1.83;1.48;;;13.10;99.90;;;;;;6295410;28;20047;-76
2023/09/20 04:54:43;;;;;;;1.38;1.27;;;13.00;99.90;;;;;;6295694;28;20068;-76
2023/09/20 04:57:47;;;;;;;2.83;1.60;;;12.90;99.90;;;;;;6295312;28;20052;-76
2023/09/20 05:00:48;;;;;;;5.88;1.50;;;12.90;99.90;;;;;;6294590;28;20036;-76
2023/09/20 05:03:50;;;;;;;2.33;1.65;;;12.80;99.90;;;;;;6294593;28;20048;-76
2023/09/20 05:06:53;;;;;;;3.20;1.63;;;12.70;99.90;;;;;;6295582;28;20044;-76
2023/09/20 05:09:54;;;;;;;1.92;1.80;;;12.70;99.90;;;;;;6294949;28;20389;-76
2023/09/20 05:12:57;;;;;;;2.78;2.03;;;12.70;99.90;;;;;;6294853;28;20071;-76
2023/09/20 05:15:59;;;;;;;4.43;2.15;;;12.70;99.90;;;;;;6294760;28;20043;-76
2023/09/20 05:19:01;;;;;;;3.72;1.92;;;12.70;99.90;;;;;;6294810;28;20048;-76
2023/09/20 05:22:03;;;;;;;1.98;1.60;;;12.70;99.90;;;;;;6293887;28;20036;-76
2023/09/20 05:25:07;;;;;;;3.03;1.98;;;12.70;99.90;;;;;;6294509;28;20519;-76
2023/09/20 05:28:10;;;;;;;3.08;2.10;;;12.70;99.90;;;;;;6294671;28;20063;-76
2023/09/20 05:31:12;;;;;;;4.00;1.90;;;12.70;99.90;;;;;;6294563;28;20040;-76
2023/09/20 05:34:13;;;;;;;5.85;2.42;;;12.80;99.90;;;;;;6294865;28;20562;-76
2023/09/20 05:37:15;;;;;;;7.57;2.30;;;12.80;99.90;;;;;;6294586;28;20045;-76
2023/09/20 05:40:18;;;;;;;4.00;1.60;;;12.80;99.90;;;;;;6294150;28;20048;-76
2023/09/20 05:43:21;;;;;;;6.95;1.88;;;12.90;99.90;;;;;;6294053;28;20048;-76
2023/09/20 05:46:24;;;;;;;2.00;1.85;;;13.00;99.90;;;;;;6295411;28;20045;-75
2023/09/20 05:49:26;;;;;;;3.80;1.60;;;13.10;99.90;;;;;;6295187;28;20059;-76
2023/09/20 05:52:27;;;;;;;1.65;1.55;;;13.30;99.90;;;;;;6294376;28;20406;-75
2023/09/20 05:55:32;;;;;;;3.30;2.88;;;13.40;99.90;;;;;;6293343;28;20429;-75
2023/09/20 05:58:35;;;;;;;3.05;2.75;;;13.40;99.90;;;;;;6294560;28;20519;-75
2023/09/20 06:01:40;;;;;;;3.35;1.73;;;13.50;99.90;;;;;;6294096;28;20041;-76
2023/09/20 06:04:41;;;;;;;3.58;1.48;;;13.60;99.90;;;;;;6293876;28;20051;-76
2023/09/20 06:07:44;;;;;;;1.95;1.65;;;13.80;99.90;;;;;;6294798;28;20060;-76
2023/09/20 06:10:46;;;;;;;3.35;1.98;;;13.90;99.90;;;;;;6294533;28;20052;-76
2023/09/20 06:13:50;;;;;;;3.33;1.88;;;14.00;99.90;;;;;;6296290;28;20047;-76
2023/09/20 06:16:52;;;;;;;2.95;1.92;;;14.10;99.90;;;;;;6299017;28;20409;-76
2023/09/20 06:19:56;;;;;;;3.38;1.40;;;14.20;99.90;;;;;;6299367;28;20047;-76
2023/09/20 06:22:58;;;;;;;4.50;1.42;;;14.30;99.90;;;;;;6298729;28;20128;-76
2023/09/20 06:26:04;;;;;;;3.15;2.83;;;14.30;99.90;;;;;;6298835;28;20044;-76
2023/09/20 06:29:09;;;;;;;5.30;1.73;;;14.30;99.90;;;;;;6298942;28;20850;-76
2023/09/20 06:32:12;;;;;;;2.90;2.22;;;14.30;99.90;;;;;;6298214;28;20041;-76
2023/09/20 06:35:15;;;;;;;2.72;1.60;;;14.30;99.90;;;;;;6298066;28;20070;-76
2023/09/20 06:38:17;;;;;;;7.45;2.05;;;14.50;99.90;;;;;;6298909;28;20539;-76
2023/09/20 06:41:20;;;;;;;3.33;1.75;;;14.50;99.90;;;;;;6298644;28;20179;-76
2023/09/20 06:44:23;;;;;;;5.82;1.80;;;14.60;99.90;;;;;;6298438;28;20044;-76
2023/09/20 06:47:25;;;;;;;3.78;1.88;;;14.80;99.90;;;;;;6299194;28;20048;-76
2023/09/20 06:50:26;;;;;;;3.08;1.67;;;14.90;99.90;;;;;;6298603;28;20056;-76
2023/09/20 06:53:28;;;;;;;4.30;1.70;;;15.00;99.90;;;;;;6297682;28;20508;-76
2023/09/20 06:56:31;;;;;;;1.92;1.55;;;15.20;99.90;;;;;;6297996;28;20045;-76
2023/09/20 06:59:37;;;;;;;7.30;1.92;;;15.30;99.90;;;;;;6298210;28;20048;-76
2023/09/20 07:02:39;;;;;;;2.35;1.48;;;15.50;99.90;;;;;;6271111;28;20105;-77
2023/09/20 07:05:41;;;;;;;1.98;1.35;;;15.60;99.90;;;;;;6297868;28;20064;-76
2023/09/20 07:08:43;;;;;;;2.20;1.75;;;15.90;99.90;;;;;;6288427;28;20454;-77
2023/09/20 07:11:46;;;;;;;3.00;1.50;;;16.10;99.90;;;;;;6303174;28;20067;-78
2023/09/20 07:14:49;;;;;;;3.60;1.50;;;16.30;99.90;;;;;;6303457;28;20048;-78
2023/09/20 07:17:59;;;;;;;2.08;1.40;;;16.70;99.90;;;;;;6295470;28;20045;-77
2023/09/20 07:21:02;;;;;;;2.58;2.10;;;17.00;99.90;;;;;;6300416;28;20194;-78
2023/09/20 07:24:06;;;;;;;2.20;1.25;;;17.20;99.90;;;;;;6298145;28;20040;-77
2023/09/20 07:27:09;;;;;;;4.53;1.73;;;17.40;99.90;;;;;;6300252;28;20044;-78
2023/09/20 07:30:17;;;;;;;5.60;1.73;;;17.50;99.90;;;;;;6301388;28;20045;-78
2023/09/20 07:33:23;;;;;;;3.38;1.27;;;17.60;99.90;;;;;;6301599;28;20155;-78
2023/09/20 07:36:29;;;;;;;3.05;1.42;;;17.60;99.90;;;;;;6287215;28;20068;-77
2023/09/20 07:39:31;;;;;;;2.05;1.63;;;17.80;99.90;;;;;;6300798;28;20048;-78
2023/09/20 07:42:33;;;;;;;2.58;1.52;;;18.00;99.90;;;;;;6302220;28;20055;-78
2023/09/20 07:45:38;;;;;;;4.78;1.73;;;18.00;99.90;;;;;;6301743;28;20063;-78
2023/09/20 07:48:47;;;;;;;2.58;2.10;;;18.20;99.90;;;;;;6296964;28;20055;-78
2023/09/20 07:51:50;;;;;;;1.85;1.75;;;18.30;99.90;;;;;;6303048;28;20390;-78
2023/09/20 07:54:52;;;;;;;1.92;1.63;;;18.60;99.90;;;;;;6302606;28;20135;-78
2023/09/20 07:57:57;;;;;;;2.38;1.77;;;18.60;99.90;;;;;;6300260;28;20048;-77
2023/09/20 08:01:10;;;;;;;2.80;1.83;;;18.80;99.90;;;;;;6301968;28;20527;-78
2023/09/20 08:04:17;;;;;;;2.22;1.50;;;19.00;99.90;;;;;;6299919;28;20040;-77
2023/09/20 08:07:18;;;;;;;7.65;1.55;;;19.10;99.90;;;;;;6298646;28;20126;-78
2023/09/20 08:10:20;;;;;;;1.73;1.60;;;19.30;99.90;;;;;;6298309;28;20131;-78
2023/09/20 08:13:22;;;;;;;2.28;1.73;;;19.50;99.90;;;;;;6299743;28;20036;-78
2023/09/20 08:16:28;;;;;;;2.80;1.77;;;19.60;99.90;;;;;;6303323;28;20044;-78
2023/09/20 08:19:31;;;;;;;1.83;1.45;;;19.90;99.90;;;;;;6302454;28;20135;-78
2023/09/20 09:02:32;;;;;;;1.75;1.05;;;23.70;99.50;;;;;;6302480;28;20056;-76
2023/09/20 09:05:35;;;;;;;1.98;1.08;;;24.70;98.30;;;;;;6293638;28;20505;-76
2023/09/20 09:08:37;;;;;;;3.67;1.67;;;25.80;96.30;;;;;;6301674;28;20052;-78
2023/09/20 09:11:39;;;;;;;2.60;0.80;;;26.50;94.50;;;;;;6300699;28;20501;-77
2023/09/20 09:14:42;;;;;;;1.50;1.35;;;27.20;92.90;;;;;;6302326;28;20397;-76
2023/09/20 09:17:44;;;;;;;1.63;1.20;;;27.70;90.90;;;;;;6299921;28;20052;-76
2023/09/20 09:20:49;;;;;;;3.00;1.38;;;28.00;88.90;;;;;;6299761;28;20537;-77
2023/09/20 09:23:51;;;;;;;3.25;1.58;;;28.40;86.50;;;;;;6299564;28;20115;-77
2023/09/20 09:27:05;;;;;;;1.35;0.82;;;28.70;84.50;;;;;;6301408;28;20048;-81
2023/09/20 09:30:09;;;;;;;2.17;1.10;;;29.20;81.80;;;;;;6298943;28;20056;-79
2023/09/20 09:33:13;;;;;;;2.05;0.85;;;29.40;80.10;;;;;;6301156;28;20037;-79
2023/09/20 09:36:17;;;;;;;8.75;1.38;;;29.60;78.20;;;;;;6300670;28;20064;-79
2023/09/20 09:39:18;;;;;;;4.68;1.90;;;29.70;76.60;;;;;;6301350;28;20049;-80
2023/09/20 09:42:24;;;;;;;1.83;1.20;;;29.20;74.80;;;;;;6301802;28;20135;-80
2023/09/20 09:45:33;;;;;;;2.65;0.80;;;29.00;74.50;;;;;;6307376;28;20059;-80
2023/09/20 09:48:35;;;;;;;7.03;1.20;;;29.00;73.80;;;;;;6304498;28;20071;-79
2023/09/20 09:51:42;;;;;;;2.40;1.60;;;28.80;72.90;;;;;;6311789;28;20047;-80
2023/09/20 09:54:45;;;;;;;5.38;1.95;;;28.60;72.50;;;;;;6311436;28;20045;-79
2023/09/20 09:57:47;;;;;;;1.83;0.90;;;28.00;70.90;;;;;;6307625;28;20543;-80
2023/09/20 10:00:53;;;;;;;3.10;0.80;;;27.30;71.60;;;;;;6304116;28;20064;-79
2023/09/20 10:03:57;;;;;;;3.50;1.08;;;27.10;72.60;;;;;;6302280;28;20052;-79
2023/09/20 10:07:08;;;;;;;2.03;0.93;;;27.00;72.80;;;;;;6303320;28;20048;-78
2023/09/20 10:10:12;;;;;;;2.17;1.17;;;27.30;73.00;;;;;;6296001;28;20068;-78
2023/09/20 10:13:14;;;;;;;1.33;0.80;;;27.70;72.10;;;;;;6275157;28;20051;-77
2023/09/20 10:16:17;;;;;;;3.47;0.95;;;27.70;70.90;;;;;;6279783;28;20044;-78
2023/09/20 10:19:19;;;;;;;3.20;0.95;;;27.70;70.30;;;;;;6302319;28;20072;-80
2023/09/20 10:22:25;;;;;;;2.03;0.77;;;28.20;70.40;;;;;;6300039;28;20048;-79
2023/09/20 10:25:30;;;;;;;3.22;0.70;;;28.60;69.40;;;;;;6299630;28;20076;-78
2023/09/20 10:28:40;;;;;;;2.15;1.35;;;28.60;68.20;;;;;;6299789;28;20048;-79
2023/09/20 10:31:42;;;;;;;1.38;0.68;;;28.80;66.80;;;;;;6292662;28;20534;-78
2023/09/20 10:35:19;;;;;;;2.80;0.85;;;28.90;66.50;;;;;;6301536;28;20048;-78
2023/09/20 10:38:23;;;;;;;2.45;0.70;;;29.20;65.50;;;;;;6300273;28;20040;-79
2023/09/20 10:41:39;;;;;;;1.45;1.35;;;29.50;65.30;;;;;;6301508;28;20076;-79
2023/09/20 10:44:42;;;;;;;1.63;0.77;;;29.80;64.00;;;;;;6301790;28;20052;-79
2023/09/20 10:47:49;;;;;;;1.40;1.17;;;29.80;63.70;;;;;;6301624;28;20041;-78
2023/09/20 10:50:53;;;;;;;2.10;1.27;;;29.70;63.30;;;;;;6302825;28;20048;-79
2023/09/20 10:53:57;;;;;;;3.47;1.35;;;29.80;63.00;;;;;;6303113;28;20440;-78
2023/09/20 10:57:07;;;;;;;2.92;0.90;;;29.90;62.50;;;;;;6301886;28;20044;-79
2023/09/20 11:00:09;;;;;;;0.65;0.65;;;30.00;61.50;;;;;;6301480;28;20041;-78
2023/09/20 11:03:12;;;;;;;5.82;0.85;;;30.10;61.60;;;;;;6306874;28;20045;-77
2023/09/20 11:06:16;;;;;;;1.23;0.65;;;30.50;61.20;;;;;;6300977;28;20052;-77
2023/09/20 11:09:22;;;;;;;1.70;0.93;;;31.10;59.80;;;;;;6305563;28;20048;-77
2023/09/20 11:12:24;;;;;;;1.80;0.75;;;31.00;58.60;;;;;;6305088;28;20401;-79
2023/09/20 11:15:26;;;;;;;1.55;0.80;;;31.00;58.70;;;;;;6307270;28;20102;-78
2023/09/20 11:18:28;;;;;;;3.20;1.77;;;31.20;58.50;;;;;;6308394;28;20056;-78
2023/09/20 11:21:30;;;;;;;2.13;1.00;;;31.40;57.90;;;;;;6307242;28;20190;-78
2023/09/20 11:24:33;;;;;;;1.23;0.88;;;31.50;57.40;;;;;;6307460;28;20044;-80
2023/09/20 11:27:36;;;;;;;1.95;0.98;;;31.70;56.90;;;;;;6303603;28;20036;-77
2023/09/20 11:30:38;;;;;;;2.20;0.80;;;31.80;55.50;;;;;;6307241;28;20052;-79
2023/09/20 11:33:40;;;;;;;0.77;0.73;;;31.60;54.60;;;;;;6308139;28;20062;-79
2023/09/20 11:36:43;;;;;;;1.48;1.13;;;31.50;54.90;;;;;;6307642;28;20045;-79
2023/09/20 11:39:47;;;;;;;1.15;0.70;;;31.60;54.70;;;;;;6300969;28;20468;-79
2023/09/20 11:42:49;;;;;;;2.42;1.10;;;31.90;53.70;;;;;;6300342;28;20044;-79
2023/09/20 11:45:53;;;;;;;3.30;0.70;;;31.70;53.10;;;;;;6303437;28;20044;-78
2023/09/20 11:48:58;;;;;;;3.78;0.95;;;31.60;53.40;;;;;;6307773;28;20094;-78
2023/09/20 11:52:02;;;;;;;1.00;0.63;;;31.70;53.10;;;;;;6307764;28;20053;-80
2023/09/20 11:55:12;;;;;;;1.70;0.75;;;32.10;53.10;;;;;;6309623;28;20417;-79
2023/09/20 11:58:20;;;;;;;2.13;1.15;;;32.10;52.20;;;;;;6308910;28;20049;-79
2023/09/20 12:01:25;;;;;;;1.38;0.70;;;31.90;52.00;;;;;;6307505;28;20406;-80
2023/09/20 12:04:28;;;;;;;1.42;0.60;;;32.00;52.10;;;;;;6306900;28;20439;-78
2023/09/20 12:07:30;;;;;;;2.42;1.45;;;32.10;52.00;;;;;;6308063;28;20056;-78
2023/09/20 12:10:33;;;;;;;2.05;1.08;;;32.30;51.10;;;;;;6310609;28;20055;-81
2023/09/20 12:13:35;;;;;;;1.05;0.75;;;32.30;51.00;;;;;;6298096;28;20070;-79
2023/09/20 12:16:36;;;;;;;3.50;1.20;;;32.30;50.10;;;;;;6305595;28;20108;-78
2023/09/20 12:19:38;;;;;;;2.40;1.00;;;32.30;50.50;;;;;;6302067;28;20194;-78
2023/09/20 12:22:40;;;;;;;1.30;0.75;;;32.60;50.30;;;;;;6297774;28;20052;-79
2023/09/20 12:25:43;;;;;;;0.88;0.70;;;32.80;49.60;;;;;;6300696;28;20551;-79
2023/09/20 12:28:45;;;;;;;1.05;0.90;;;32.60;49.20;;;;;;6305299;28;20048;-79
2023/09/20 12:31:49;;;;;;;1.42;0.80;;;32.70;49.40;;;;;;6294975;28;20048;-81
2023/09/20 12:34:55;;;;;;;1.85;0.90;;;33.10;49.20;;;;;;6296567;28;20048;-82
2023/09/20 12:37:56;;;;;;;1.05;0.70;;;33.40;48.00;;;;;;6302004;28;20397;-80
2023/09/20 12:41:00;;;;;;;2.20;0.98;;;33.60;47.80;;;;;;6301623;28;20044;-80
2023/09/20 12:44:01;;;;;;;2.00;0.82;;;33.30;46.80;;;;;;6301294;28;20433;-81
2023/09/20 12:47:03;;;;;;;0.65;0.52;;;33.40;46.60;;;;;;6304923;28;20433;-83
2023/09/20 12:50:07;;;;;;;1.75;1.00;;;33.60;46.50;;;;;;6304004;28;20051;-81
2023/09/20 12:53:09;;;;;;;2.35;0.85;;;33.80;46.30;;;;;;6297649;28;20048;-80
2023/09/20 12:56:13;;;;;;;1.55;1.27;;;34.00;46.30;;;;;;6296355;28;20040;-80
2023/09/20 12:59:15;;;;;;;1.38;0.65;;;34.20;45.20;;;;;;6300695;28;20048;-81
2023/09/20 13:02:17;;;;;;;1.27;0.98;;;33.90;45.00;;;;;;6299956;28;20045;-80
2023/09/20 13:05:19;;;;;;;1.75;1.02;;;33.70;45.00;;;;;;6296637;28;20044;-80
2023/09/20 13:08:21;;;;;;;2.45;1.65;;;33.80;44.80;;;;;;6301607;28;20040;-81
2023/09/20 13:11:24;;;;;;;1.73;1.00;;;33.90;45.00;;;;;;6301344;28;20044;-81
2023/09/20 13:14:26;;;;;;;1.85;0.93;;;34.30;44.40;;;;;;6302459;28;20052;-81
2023/09/20 13:17:28;;;;;;;0.98;0.82;;;34.50;43.80;;;;;;6302276;28;20481;-80
2023/09/20 13:20:31;;;;;;;0.80;0.80;;;34.10;43.90;;;;;;6302771;28;20040;-81
2023/09/20 13:23:34;;;;;;;1.75;0.90;;;34.10;44.00;;;;;;6301397;28;20044;-84
2023/09/20 13:26:38;;;;;;;1.80;1.15;;;33.90;44.40;;;;;;6302702;28;20505;-81
2023/09/20 13:29:40;;;;;;;1.10;0.70;;;34.10;44.00;;;;;;6302258;28;20053;-82
2023/09/20 13:32:42;;;;;;;1.33;0.75;;;34.30;44.20;;;;;;6303678;28;20040;-81
2023/09/20 13:35:44;;;;;;;1.92;0.98;;;34.60;44.10;;;;;;6302400;28;20051;-81
2023/09/20 13:38:46;;;;;;;2.80;0.85;;;35.10;43.80;;;;;;6303249;28;20059;-81
2023/09/20 13:41:53;;;;;;;1.40;0.90;;;35.30;43.50;;;;;;6302411;28;20047;-82
2023/09/20 13:44:55;;;;;;;1.50;0.75;;;35.30;43.40;;;;;;6293736;28;20090;-82
2023/09/20 13:47:57;;;;;;;0.93;0.68;;;35.20;43.20;;;;;;6296403;28;20048;-83
2023/09/20 13:50:59;;;;;;;1.70;0.95;;;35.30;43.20;;;;;;6291192;28;20053;-82
2023/09/20 13:54:01;;;;;;;1.10;0.70;;;35.40;43.00;;;;;;6287447;28;20141;-82
2023/09/20 13:57:04;;;;;;;1.88;0.60;;;35.00;43.20;;;;;;6290263;28;20582;-82
2023/09/20 14:00:11;;;;;;;1.50;1.00;;;35.20;43.30;;;;;;6288124;28;20138;-82
2023/09/20 14:03:15;;;;;;;;;;;35.10;43.10;;;;;;6296649;28;20121;-81
2023/09/20 14:06:17;;;;;;;1.27;0.70;;;34.80;43.30;;;;;;6302674;28;19920;-82
2023/09/20 14:09:20;;;;;;;1.80;0.70;;;34.90;43.70;;;;;;6300230;28;20041;-82
2023/09/20 14:12:23;;;;;;;2.53;0.85;;;34.70;43.70;;;;;;6300621;28;20126;-81
2023/09/20 14:15:26;;;;;;;1.40;0.82;;;34.80;43.40;;;;;;6300934;28;20048;-83
2023/09/20 14:18:28;;;;;;;3.28;1.08;;;35.00;43.40;;;;;;6301957;28;20052;-82
2023/09/20 14:21:30;;;;;;;1.00;0.60;;;35.10;42.80;;;;;;6301614;28;20056;-81
2023/09/20 14:24:32;;;;;;;1.42;1.10;;;34.60;43.00;;;;;;6301174;28;20048;-80
2023/09/20 14:27:36;;;;;;;2.65;1.08;;;34.80;43.30;;;;;;6301189;28;20052;-82
2023/09/20 14:30:37;;;;;;;2.67;0.68;;;35.00;43.20;;;;;;6301522;28;20049;-81
2023/09/20 14:33:39;;;;;;;2.13;1.13;;;35.10;43.40;;;;;;6302015;28;20049;-80
2023/09/20 14:36:42;;;;;;;1.90;1.15;;;35.50;43.00;;;;;;6306856;28;20049;-81
2023/09/20 14:39:44;;;;;;;2.55;1.55;;;35.60;42.70;;;;;;6307367;28;20437;-81
2023/09/20 14:42:48;;;;;;;2.42;1.50;;;35.60;42.50;;;;;;6306904;28;20420;-80
2023/09/20 14:45:50;;;;;;;0.80;0.57;;;34.80;42.60;;;;;;6305260;28;20052;-80
2023/09/20 14:48:53;;;;;;;1.77;1.10;;;34.70;43.10;;;;;;6306120;28;20040;-81
2023/09/20 14:51:55;;;;;;;0.95;0.82;;;35.00;43.20;;;;;;6305580;28;20127;-80
2023/09/20 14:54:57;;;;;;;1.33;0.95;;;34.80;43.10;;;;;;6294894;28;20044;-81
2023/09/20 14:58:01;;;;;;;2.22;1.48;;;34.30;43.40;;;;;;6300604;28;20051;-80
2023/09/20 15:01:12;;;;;;;2.33;1.05;;;33.80;43.80;;;;;;6307397;28;20041;-81
2023/09/20 15:04:13;;;;;;;1.83;1.10;;;33.30;44.20;;;;;;6307603;28;20041;-80
2023/09/20 15:07:15;;;;;;;1.63;0.90;;;32.50;44.70;;;;;;6305125;28;20044;-81
2023/09/20 15:10:17;;;;;;;1.20;0.88;;;31.90;45.40;;;;;;6304184;28;20106;-81
2023/09/20 15:13:22;;;;;;;1.40;1.15;;;31.50;46.00;;;;;;6302136;28;20382;-80
2023/09/20 15:16:23;;;;;;;0.90;0.77;;;31.00;46.50;;;;;;6304333;28;20049;-80
2023/09/20 15:19:27;;;;;;;1.58;1.00;;;30.60;47.10;;;;;;6303671;28;20425;-79
2023/09/20 15:22:31;;;;;;;1.67;0.90;;;30.20;47.50;;;;;;6302821;28;20060;-79
2023/09/20 15:25:32;;;;;;;2.00;0.80;;;29.80;47.70;;;;;;6302691;28;20067;-78
2023/09/20 15:28:35;;;;;;;1.80;1.30;;;29.30;48.30;;;;;;6303423;28;20044;-81
2023/09/20 15:31:37;;;;;;;2.30;0.95;;;28.90;48.90;;;;;;6303414;28;20049;-80
2023/09/20 15:34:39;;;;;;;0.60;0.57;;;28.60;49.50;;;;;;6303903;28;20048;-79
2023/09/20 15:37:43;;;;;;;3.63;2.58;;;28.30;49.90;;;;;;6303255;28;20048;-78
2023/09/20 15:40:45;;;;;;;1.60;0.90;;;28.10;50.50;;;;;;6303690;28;20420;-79
2023/09/20 15:43:50;;;;;;;1.50;1.00;;;27.90;50.90;;;;;;6302100;28;20052;-78
2023/09/20 15:46:51;;;;;;;2.75;0.80;;;27.70;51.50;;;;;;6304380;28;20052;-79
2023/09/20 15:49:55;;;;;;;1.40;1.02;;;27.60;51.80;;;;;;6302713;28;20048;-79
2023/09/20 15:52:57;;;;;;;2.53;1.58;;;27.30;52.00;;;;;;6301806;28;20052;-79
2023/09/20 15:55:59;;;;;;;1.30;1.00;;;27.20;52.20;;;;;;6302245;28;20066;-79
2023/09/20 15:59:02;;;;;;;3.42;1.60;;;26.90;52.50;;;;;;6304217;28;20155;-78
2023/09/20 16:02:04;;;;;;;1.52;0.85;;;26.80;52.80;;;;;;6302132;28;20044;-79
2023/09/20 16:05:09;;;;;;;2.33;0.88;;;26.70;53.00;;;;;;6301324;28;20057;-78
2023/09/20 16:08:11;;;;;;;4.93;1.15;;;26.50;53.30;;;;;;6300084;28;20048;-80
2023/09/20 16:11:13;;;;;;;1.90;1.00;;;26.40;53.70;;;;;;6301444;28;20055;-79
2023/09/20 16:14:16;;;;;;;5.00;1.40;;;26.30;54.10;;;;;;6301941;28;20045;-78
2023/09/20 16:17:18;;;;;;;3.90;1.48;;;26.10;54.60;;;;;;6301453;28;20056;-78
2023/09/20 16:20:20;;;;;;;1.75;1.02;;;26.00;54.70;;;;;;6301439;28;20063;-79
2023/09/20 16:23:22;;;;;;;1.83;1.48;;;25.90;55.00;;;;;;6300753;28;20052;-78
2023/09/20 16:26:24;;;;;;;3.97;1.40;;;25.80;55.30;;;;;;6301188;28;20567;-78
2023/09/20 16:29:27;;;;;;;1.83;1.00;;;25.70;55.50;;;;;;6301221;28;20052;-77
2023/09/20 16:32:28;;;;;;;2.97;1.48;;;25.60;56.40;;;;;;6301773;28;20044;-80
2023/09/20 16:35:30;;;;;;;2.58;1.88;;;25.50;57.00;;;;;;6289937;28;20052;-78